This is the latest recevied weather packets stored in our database for station/object SP9MUF-14. If no packets are shown the sender has not sent any weather packets the latest 10 day(s).
| Time | Temp. | Humidity | Pressure | Rain* | Wind** | Luminosity | Snow |
|---|---|---|---|---|---|---|---|
| 1787973392 | 15.56° C | 93% | 1013.6 hPa | 13.21 mm | - | 0 W/m² | - |
| 1787973090 | 15.56° C | 93% | 1013.7 hPa | 12.19 mm | - | 0 W/m² | - |
| 1787972788 | 15.56° C | 92% | 1013.5 hPa | 11.18 mm | - | 0 W/m² | - |
| 1787972184 | 15.56° C | 90% | 1013.9 hPa | 7.87 mm | - | 0 W/m² | - |
| 1787971882 | 15.56° C | 89% | 1013.8 hPa | 6.86 mm | - | 0 W/m² | - |
| 1787971580 | 15.56° C | 88% | 1013.7 hPa | 6.1 mm | - | 0 W/m² | - |
| 1787971278 | 16.67° C | 83% | 1013.5 hPa | 3.05 mm | - | 0 W/m² | - |
| 1787970673 | 17.78° C | 68% | 1012.8 hPa | 0 mm | - | 0 W/m² | - |
| 1787970371 | 16.67° C | 65% | 1013 hPa | 0 mm | - | 0 W/m² | - |
| 1787970069 | 16.67° C | 66% | 1008.2 hPa | 0 mm | - | 0 W/m² | - |
| 1787969767 | 16.67° C | 66% | 1010.8 hPa | 0 mm | - | 0 W/m² | - |
| 1787969163 | 16.67° C | 65% | 1010.8 hPa | 0 mm | - | 0 W/m² | - |
| 1787968861 | 16.67° C | 65% | 1010.7 hPa | 0 mm | - | 0 W/m² | - |
| 1787968559 | 16.67° C | 66% | 1010.8 hPa | 0 mm | - | 0 W/m² | - |
| 1787968256 | 16.67° C | 66% | 1011 hPa | 0 mm | - | 0 W/m² | - |
| 1787967954 | 16.67° C | 66% | 1011 hPa | 0 mm | - | 0 W/m² | - |
| 1787967652 | 16.67° C | 66% | 1011.1 hPa | 0 mm | - | 0 W/m² | - |
| 1787967350 | 16.67° C | 66% | 1011.3 hPa | 0 mm | - | 0 W/m² | - |
| 1787967048 | 16.67° C | 66% | 1011.5 hPa | 0 mm | - | 0 W/m² | - |
| 1787966746 | 16.67° C | 67% | 1011.6 hPa | 0 mm | - | 0 W/m² | - |
| 1787966445 | 16.67° C | 67% | 1011.5 hPa | 0 mm | - | 0 W/m² | - |
| 1787966142 | 16.67° C | 66% | 1011.6 hPa | 0 mm | - | 0 W/m² | - |
| 1787965839 | 15.56° C | 68% | 1011.6 hPa | 0 mm | - | 0 W/m² | - |
| 1787965537 | 15.56° C | 68% | 1011.5 hPa | 0 mm | - | 0 W/m² | - |
| 1787964933 | 15.56° C | 67% | 1011.7 hPa | 0 mm | - | 0 W/m² | - |
* Rain latest hour (hover to see other rain measurements)
** Current wind speed in m/s (hover to see current wind gust speed)